createdAt,value
2017-06-18T00:01:22.731Z,83.90
2017-06-18T00:03:50.264Z,84.00
2017-06-18T00:06:17.786Z,83.80
2017-06-18T00:08:45.311Z,83.70
2017-06-18T00:11:13.234Z,83.90
2017-06-18T00:13:40.755Z,83.90
2017-06-18T00:16:08.298Z,83.40
2017-06-18T00:18:35.794Z,83.70
2017-06-18T00:21:03.342Z,83.80
2017-06-18T00:23:30.880Z,83.90
2017-06-18T00:25:58.391Z,83.30
2017-06-18T00:28:25.929Z,83.60
2017-06-18T00:30:54.409Z,83.40
2017-06-18T00:33:21.962Z,83.10
2017-06-18T00:35:49.489Z,83.00
2017-06-18T00:38:17.030Z,83.50
2017-06-18T00:40:44.619Z,83.30
2017-06-18T00:43:12.148Z,83.30
2017-06-18T00:45:39.646Z,83.40
2017-06-18T00:48:07.154Z,82.90
2017-06-18T00:50:34.650Z,82.90
2017-06-18T00:53:02.171Z,82.80
2017-06-18T00:55:30.053Z,83.10
2017-06-18T00:57:57.954Z,83.00
2017-06-18T01:00:25.442Z,83.00
2017-06-18T01:02:52.958Z,82.80
2017-06-18T01:05:20.445Z,83.30
2017-06-18T01:07:47.957Z,83.30
2017-06-18T01:10:15.450Z,83.00
2017-06-18T01:12:42.964Z,83.30
2017-06-18T01:15:10.454Z,82.90
2017-06-18T01:17:39.079Z,83.00
2017-06-18T01:20:06.969Z,82.90
2017-06-18T01:22:34.497Z,82.90
2017-06-18T01:25:01.997Z,83.20
2017-06-18T01:27:29.497Z,83.30
2017-06-18T01:29:56.989Z,83.20
2017-06-18T01:32:24.516Z,83.00
2017-06-18T01:34:52.794Z,82.80
2017-06-18T01:37:20.297Z,82.60
2017-06-18T01:39:47.801Z,82.90
2017-06-18T01:42:15.310Z,83.10
2017-06-18T01:44:42.826Z,82.90
2017-06-18T01:47:10.311Z,82.70
2017-06-18T01:49:38.829Z,82.60
2017-06-18T01:52:06.804Z,82.90
2017-06-18T01:54:35.038Z,82.80
2017-06-18T01:57:02.549Z,83.30
2017-06-18T01:59:30.033Z,83.90
2017-06-18T02:01:57.545Z,83.80
2017-06-18T02:04:25.033Z,83.50
2017-06-18T02:06:52.559Z,83.40
2017-06-18T02:09:20.986Z,83.50
2017-06-18T02:11:49.375Z,83.70
2017-06-18T02:14:16.882Z,83.50
2017-06-18T02:16:44.389Z,83.90
2017-06-18T02:19:11.893Z,84.30
2017-06-18T02:21:39.381Z,84.40
2017-06-18T02:24:06.909Z,84.50
2017-06-18T02:26:34.398Z,84.70
2017-06-18T02:29:01.916Z,84.60
2017-06-18T02:31:29.421Z,85.40
2017-06-18T02:33:56.913Z,85.30
2017-06-18T02:36:24.415Z,85.10
2017-06-18T02:38:51.911Z,85.00
2017-06-18T02:41:21.358Z,85.50
2017-06-18T02:43:48.847Z,85.70
2017-06-18T02:46:16.333Z,85.60
2017-06-18T02:48:43.841Z,85.10
2017-06-18T02:51:11.325Z,85.80
2017-06-18T02:53:38.821Z,86.00
2017-06-18T02:56:06.301Z,86.00
2017-06-18T02:58:34.789Z,86.00
2017-06-18T03:01:02.278Z,86.10
2017-06-18T03:03:29.769Z,86.20
2017-06-18T03:05:57.277Z,85.70
2017-06-18T03:08:24.760Z,85.90
2017-06-18T03:10:52.257Z,85.10
2017-06-18T03:13:20.774Z,85.00
2017-06-18T03:15:48.274Z,85.00
2017-06-18T03:18:15.753Z,84.50
2017-06-18T03:20:43.266Z,84.50
2017-06-18T03:23:16.532Z,84.30
2017-06-18T03:25:44.044Z,84.20
2017-06-18T03:28:11.534Z,84.10
2017-06-18T03:30:39.021Z,84.20
2017-06-18T03:33:06.514Z,84.20
2017-06-18T03:35:33.997Z,83.70
2017-06-18T03:38:01.497Z,84.00
2017-06-18T03:40:29.389Z,84.10
2017-06-18T03:42:56.913Z,84.10
2017-06-18T03:45:24.406Z,83.90
2017-06-18T03:47:51.889Z,83.70
2017-06-18T03:50:19.618Z,83.70
2017-06-18T03:52:49.126Z,84.30
2017-06-18T03:55:17.537Z,85.00
2017-06-18T03:57:45.021Z,85.00
2017-06-18T04:03:23.884Z,85.30
2017-06-18T04:05:51.763Z,84.20
2017-06-18T04:08:21.211Z,84.20
2017-06-18T04:10:48.694Z,83.90
2017-06-18T04:13:16.213Z,83.70
2017-06-18T04:15:43.694Z,83.80
2017-06-18T04:18:11.177Z,84.00
2017-06-18T04:20:39.578Z,84.00
2017-06-18T04:23:07.056Z,83.90
2017-06-18T04:25:34.562Z,84.20
2017-06-18T04:28:02.042Z,84.90
2017-06-18T04:30:29.542Z,84.90
2017-06-18T04:32:57.037Z,85.00
2017-06-18T04:35:25.470Z,84.80
2017-06-18T04:37:52.967Z,85.20
2017-06-18T04:40:20.450Z,85.20
2017-06-18T04:42:48.362Z,84.90
2017-06-18T04:45:15.848Z,84.90
2017-06-18T04:47:43.329Z,85.00
2017-06-18T04:50:11.227Z,84.60
2017-06-18T04:52:38.722Z,84.60
2017-06-18T04:55:08.174Z,84.40
2017-06-18T04:57:35.658Z,84.80
2017-06-18T05:00:03.133Z,84.50
2017-06-18T05:02:30.634Z,84.30
2017-06-18T05:04:58.114Z,84.40
2017-06-18T05:07:25.633Z,84.20
2017-06-18T05:09:53.505Z,84.10
2017-06-18T05:12:21.022Z,84.10
2017-06-18T05:14:48.518Z,83.80
2017-06-18T05:17:16.397Z,84.00
2017-06-18T05:19:44.297Z,84.40
2017-06-18T05:22:11.778Z,84.50
2017-06-18T05:24:39.261Z,84.80
2017-06-18T05:27:06.762Z,84.80
2017-06-18T05:29:34.241Z,85.10
2017-06-18T05:32:01.758Z,85.20
2017-06-18T05:34:29.246Z,85.50
2017-06-18T05:36:57.669Z,85.50
2017-06-18T05:39:26.070Z,85.50
2017-06-18T05:41:53.549Z,85.40
2017-06-18T05:44:21.061Z,85.50
2017-06-18T05:46:48.940Z,85.50
2017-06-18T05:49:16.422Z,85.60
2017-06-18T05:51:43.921Z,85.30
2017-06-18T05:54:12.337Z,85.30
2017-06-18T05:56:39.870Z,85.20
2017-06-18T05:59:07.349Z,84.90
2017-06-18T06:01:35.777Z,84.70
2017-06-18T06:04:03.285Z,84.50
2017-06-18T06:06:30.762Z,83.90
2017-06-18T06:08:58.268Z,83.40
2017-06-18T06:11:26.713Z,83.30
2017-06-18T06:13:55.085Z,82.90
2017-06-18T06:16:22.589Z,82.60
2017-06-18T06:18:50.069Z,82.60
2017-06-18T06:21:17.989Z,82.40
2017-06-18T06:23:45.466Z,82.40
2017-06-18T06:26:12.941Z,82.00
2017-06-18T06:28:40.453Z,82.00
2017-06-18T06:31:07.950Z,81.50
2017-06-18T06:33:35.462Z,80.80
2017-06-18T06:36:02.938Z,79.50
2017-06-18T06:38:30.426Z,79.20
2017-06-18T06:40:57.933Z,79.00
2017-06-18T06:43:25.426Z,79.10
2017-06-18T06:45:52.957Z,79.60
2017-06-18T06:48:21.685Z,79.30
2017-06-18T06:50:49.170Z,78.70
2017-06-18T06:53:18.608Z,79.00
2017-06-18T06:55:46.089Z,78.70
2017-06-18T06:58:13.573Z,79.40
2017-06-18T07:00:41.057Z,79.80
2017-06-18T07:03:08.586Z,79.60
2017-06-18T07:05:36.090Z,79.90
2017-06-18T07:08:03.574Z,79.50
2017-06-18T07:10:31.079Z,79.80
2017-06-18T07:12:58.578Z,79.40
2017-06-18T07:15:26.081Z,78.50
2017-06-18T07:17:53.557Z,79.20
2017-06-18T07:20:22.977Z,76.00
2017-06-18T07:22:50.450Z,77.30
2017-06-18T07:25:17.920Z,77.50
2017-06-18T07:27:45.435Z,75.60
2017-06-18T07:30:12.931Z,74.70
2017-06-18T07:32:42.377Z,75.00
2017-06-18T07:35:09.861Z,75.10
2017-06-18T07:37:38.270Z,76.00
2017-06-18T07:40:05.749Z,75.60
2017-06-18T07:42:33.621Z,76.50
2017-06-18T07:45:01.121Z,76.50
2017-06-18T07:47:28.600Z,76.40
2017-06-18T07:49:56.095Z,76.80
2017-06-18T07:52:23.577Z,77.20
2017-06-18T07:54:51.091Z,77.00
2017-06-18T07:57:18.578Z,75.60
2017-06-18T07:59:46.058Z,74.30
2017-06-18T08:02:13.559Z,73.90
2017-06-18T08:04:41.217Z,73.20
2017-06-18T08:07:09.424Z,73.10
2017-06-18T08:09:36.918Z,73.20
2017-06-18T08:12:04.665Z,73.10
2017-06-18T08:14:32.153Z,73.10
2017-06-18T08:16:59.634Z,73.80
2017-06-18T08:19:27.529Z,71.50
2017-06-18T08:21:55.946Z,71.50
2017-06-18T08:24:23.444Z,72.50
2017-06-18T08:26:51.862Z,70.60
2017-06-18T08:29:19.376Z,70.60
2017-06-18T08:31:47.245Z,70.80
2017-06-18T08:34:16.062Z,71.50
2017-06-18T08:36:43.549Z,71.50
2017-06-18T08:39:11.025Z,71.70
2017-06-18T08:41:38.518Z,71.50
2017-06-18T08:44:06.002Z,71.20
2017-06-18T08:46:33.517Z,70.40
2017-06-18T08:49:00.993Z,70.70
2017-06-18T08:51:28.469Z,70.80
2017-06-18T08:53:55.962Z,70.30
2017-06-18T08:56:23.437Z,70.30
2017-06-18T08:58:50.937Z,69.30
2017-06-18T09:01:18.501Z,70.40
2017-06-18T09:03:46.014Z,71.00
2017-06-18T09:06:13.882Z,71.60
2017-06-18T09:08:41.762Z,71.70
2017-06-18T09:11:09.275Z,71.70
2017-06-18T09:13:36.756Z,72.30
2017-06-18T09:16:04.661Z,72.90
2017-06-18T09:18:32.161Z,72.90
2017-06-18T09:20:59.642Z,72.60
2017-06-18T09:23:27.533Z,72.90
2017-06-18T09:25:55.056Z,72.90
2017-06-18T09:28:22.569Z,72.40
2017-06-18T09:30:50.041Z,71.60
2017-06-18T09:33:18.330Z,71.80
2017-06-18T09:35:45.834Z,71.80
2017-06-18T09:38:14.252Z,71.80
2017-06-18T09:40:41.761Z,71.80
2017-06-18T09:43:09.234Z,71.40
2017-06-18T09:45:36.730Z,70.70
2017-06-18T09:48:04.252Z,71.10
2017-06-18T09:50:31.730Z,70.90
2017-06-18T09:53:00.145Z,71.20
2017-06-18T09:55:28.049Z,70.80
2017-06-18T09:57:55.534Z,70.80
2017-06-18T10:00:23.046Z,71.10
2017-06-18T10:02:51.322Z,71.50
2017-06-18T10:05:18.803Z,71.10
2017-06-18T10:07:46.309Z,71.70
2017-06-18T10:10:13.807Z,72.20
2017-06-18T10:12:41.281Z,71.20
2017-06-18T10:15:08.781Z,70.30
2017-06-18T10:17:36.262Z,70.60
2017-06-18T10:20:04.204Z,70.20
2017-06-18T10:22:31.684Z,70.20
2017-06-18T10:24:59.168Z,70.80
2017-06-18T10:27:28.609Z,70.30
2017-06-18T10:29:56.769Z,70.30
2017-06-18T10:32:24.277Z,70.10
2017-06-18T10:34:52.158Z,70.20
2017-06-18T10:37:19.626Z,70.20
2017-06-18T10:39:47.125Z,70.00
2017-06-18T10:42:14.608Z,69.70
2017-06-18T10:44:42.501Z,70.20
2017-06-18T10:47:09.982Z,70.20
2017-06-18T10:49:37.481Z,69.80
2017-06-18T10:52:05.381Z,70.20
2017-06-18T10:54:32.881Z,70.20
2017-06-18T10:57:00.365Z,69.20
2017-06-18T10:59:27.879Z,69.40
2017-06-18T11:01:55.375Z,69.20
2017-06-18T11:04:23.819Z,68.90
2017-06-18T11:06:51.341Z,68.60
2017-06-18T11:09:18.834Z,68.30
2017-06-18T11:11:46.325Z,68.50
2017-06-18T11:14:13.823Z,68.90
2017-06-18T11:16:41.310Z,69.00
2017-06-18T11:19:08.834Z,68.90
2017-06-18T11:21:36.337Z,69.40
2017-06-18T11:24:03.833Z,69.10
2017-06-18T11:26:31.411Z,68.90
2017-06-18T11:29:00.898Z,68.70
2017-06-18T11:31:28.393Z,68.80
2017-06-18T11:33:55.914Z,69.10
2017-06-18T11:36:23.401Z,68.80
2017-06-18T11:38:50.909Z,68.40
2017-06-18T11:41:18.390Z,68.10
2017-06-18T11:43:45.890Z,68.00
2017-06-18T11:46:13.376Z,67.60
2017-06-18T11:48:40.870Z,67.90
2017-06-18T11:51:08.373Z,67.90
2017-06-18T11:53:35.871Z,68.70
2017-06-18T11:56:03.399Z,68.70
2017-06-18T11:58:30.910Z,69.20
2017-06-18T12:00:59.359Z,68.90
2017-06-18T12:03:27.264Z,68.40
2017-06-18T12:05:54.746Z,68.40
2017-06-18T12:08:22.261Z,68.30
2017-06-18T12:10:49.754Z,68.40
2017-06-18T12:13:17.256Z,68.00
2017-06-18T12:15:45.133Z,67.80
2017-06-18T12:18:12.642Z,67.80
2017-06-18T12:20:42.092Z,67.90
2017-06-18T12:23:09.570Z,68.10
2017-06-18T12:25:37.071Z,68.90
2017-06-18T12:28:04.561Z,68.70
2017-06-18T12:30:32.062Z,68.80
2017-06-18T12:32:59.551Z,68.00
2017-06-18T12:35:28.982Z,68.40
2017-06-18T12:37:57.358Z,67.50
2017-06-18T12:40:24.862Z,67.70
2017-06-18T12:42:52.349Z,67.00
2017-06-18T12:45:20.258Z,66.70
2017-06-18T12:47:47.741Z,66.70
2017-06-18T12:50:17.193Z,66.70
2017-06-18T12:52:44.707Z,66.70
2017-06-18T12:55:12.222Z,66.60
2017-06-18T12:57:39.700Z,66.20
2017-06-18T13:00:07.217Z,65.90
2017-06-18T13:02:35.997Z,65.30
2017-06-18T13:05:03.507Z,65.30
2017-06-18T13:07:30.994Z,65.20
2017-06-18T13:09:58.497Z,65.30
2017-06-18T13:12:26.001Z,65.00
2017-06-18T13:14:55.449Z,64.50
2017-06-18T13:17:22.938Z,64.60
2017-06-18T13:19:50.491Z,65.00
2017-06-18T13:22:17.989Z,65.50
2017-06-18T13:24:45.494Z,65.80
2017-06-18T13:27:12.973Z,65.80
2017-06-18T13:29:40.465Z,65.90
2017-06-18T13:32:07.957Z,65.60
2017-06-18T13:34:35.458Z,65.10
2017-06-18T13:37:02.978Z,64.40
2017-06-18T13:39:30.478Z,64.20
2017-06-18T13:41:58.025Z,64.50
2017-06-18T13:44:25.530Z,65.40
2017-06-18T13:46:53.017Z,65.60
2017-06-18T13:49:20.522Z,65.50
2017-06-18T13:51:49.307Z,64.10
2017-06-18T13:54:16.837Z,64.10
2017-06-18T13:56:44.317Z,64.00
2017-06-18T13:59:11.917Z,64.30
2017-06-18T14:01:40.300Z,64.30
2017-06-18T14:04:07.805Z,64.20
2017-06-18T14:06:35.277Z,63.70
2017-06-18T14:09:02.775Z,63.70
2017-06-18T14:11:30.249Z,64.80
2017-06-18T14:13:57.745Z,65.10
2017-06-18T14:16:25.242Z,65.00
2017-06-18T14:18:52.745Z,65.10
2017-06-18T14:21:20.230Z,64.80
2017-06-18T14:23:47.737Z,64.50
2017-06-18T14:26:15.225Z,64.70
2017-06-18T14:28:42.721Z,65.00
2017-06-18T14:31:11.173Z,65.00
2017-06-18T14:33:38.674Z,64.80
2017-06-18T14:36:06.157Z,64.50
2017-06-18T14:38:33.661Z,64.70
2017-06-18T14:41:01.153Z,64.60
2017-06-18T14:43:28.650Z,64.40
2017-06-18T14:45:56.130Z,64.40
2017-06-18T14:48:25.541Z,64.90
2017-06-18T14:50:53.029Z,65.00
2017-06-18T14:53:20.541Z,64.70
2017-06-18T14:55:48.413Z,64.30
2017-06-18T14:58:16.297Z,63.70
2017-06-18T15:00:44.737Z,63.70
2017-06-18T15:03:13.128Z,64.00
2017-06-18T15:05:41.001Z,63.80
2017-06-18T15:08:08.497Z,63.80
2017-06-18T15:10:35.985Z,64.00
2017-06-18T15:13:03.522Z,64.60
2017-06-18T15:15:31.059Z,65.00
2017-06-18T15:17:58.570Z,65.10
2017-06-18T15:20:26.050Z,65.00
2017-06-18T15:22:53.555Z,64.90
2017-06-18T15:25:21.272Z,65.00
2017-06-18T15:27:48.818Z,64.70
2017-06-18T15:30:17.636Z,64.60
2017-06-18T15:32:45.129Z,64.60
2017-06-18T15:35:12.617Z,64.70
2017-06-18T15:37:40.115Z,63.90
2017-06-18T15:40:07.589Z,64.20
2017-06-18T15:42:35.090Z,64.60
2017-06-18T15:45:03.901Z,64.00
2017-06-18T15:47:31.402Z,64.00
2017-06-18T15:49:58.886Z,64.00
2017-06-18T15:52:26.790Z,64.40
2017-06-18T15:54:54.266Z,64.40
2017-06-18T15:57:21.762Z,64.80
2017-06-18T15:59:49.244Z,65.30
2017-06-18T16:02:16.734Z,64.70
2017-06-18T16:04:45.156Z,65.10
2017-06-18T16:07:13.050Z,64.90
2017-06-18T16:09:40.538Z,64.90
2017-06-18T16:12:08.634Z,66.20
2017-06-18T16:14:36.122Z,64.80
2017-06-18T16:17:03.632Z,64.70
2017-06-18T16:19:31.110Z,64.30
2017-06-18T16:21:58.606Z,64.40
2017-06-18T16:24:26.094Z,64.30
2017-06-18T16:26:55.234Z,64.00
2017-06-18T16:29:22.717Z,64.50
2017-06-18T16:31:50.213Z,63.90
2017-06-18T16:34:18.630Z,64.30
2017-06-18T16:36:46.523Z,63.50
2017-06-18T16:39:14.041Z,63.50
2017-06-18T16:41:41.929Z,63.40
2017-06-18T16:44:09.814Z,63.30
2017-06-18T16:46:37.373Z,63.30
2017-06-18T16:49:05.817Z,63.30
2017-06-18T16:51:33.346Z,63.10
2017-06-18T16:54:00.818Z,63.00
2017-06-18T16:56:28.305Z,62.30
2017-06-18T16:58:56.214Z,62.20
2017-06-18T17:01:23.686Z,62.20
2017-06-18T17:03:51.186Z,62.60
2017-06-18T17:06:19.061Z,61.40
2017-06-18T17:08:46.935Z,61.00
2017-06-18T17:11:14.438Z,61.10
2017-06-18T17:13:41.906Z,61.00
2017-06-18T17:16:09.418Z,60.40
2017-06-18T17:18:36.894Z,60.90
2017-06-18T17:21:10.930Z,60.60
2017-06-18T17:23:38.402Z,60.80
2017-06-18T17:26:05.886Z,61.10
2017-06-18T17:28:33.389Z,61.20
2017-06-18T17:31:00.866Z,61.20
2017-06-18T17:33:28.378Z,60.90
2017-06-18T17:35:55.857Z,61.10
2017-06-18T17:38:23.337Z,60.90
2017-06-18T17:40:50.842Z,60.60
2017-06-18T17:43:19.217Z,61.00
2017-06-18T17:45:46.737Z,61.00
2017-06-18T17:48:14.617Z,61.70
2017-06-18T17:50:42.485Z,62.10
2017-06-18T17:53:12.322Z,62.00
2017-06-18T17:55:39.808Z,62.00
2017-06-18T17:58:07.317Z,62.40
2017-06-18T18:00:35.194Z,62.80
2017-06-18T18:03:02.678Z,62.80
2017-06-18T18:05:30.174Z,63.00
2017-06-18T18:07:57.649Z,63.10
2017-06-18T18:10:25.565Z,63.40
2017-06-18T18:12:53.047Z,63.40
2017-06-18T18:15:21.262Z,63.80
2017-06-18T18:17:48.779Z,63.80
2017-06-18T18:20:16.263Z,63.90
2017-06-18T18:22:44.165Z,63.70
2017-06-18T18:25:11.649Z,63.70
2017-06-18T18:27:39.138Z,64.20
2017-06-18T18:30:06.649Z,64.30
2017-06-18T18:32:34.125Z,64.30
2017-06-18T18:35:01.644Z,64.60
2017-06-18T18:37:29.142Z,64.70
2017-06-18T18:39:56.638Z,64.80
2017-06-18T18:42:24.216Z,64.90
2017-06-18T18:44:52.006Z,65.10
2017-06-18T18:47:19.483Z,65.00
2017-06-18T18:49:46.973Z,65.10
2017-06-18T18:52:15.402Z,65.10
2017-06-18T18:54:45.542Z,65.20
2017-06-18T18:57:13.030Z,65.40
2017-06-18T18:59:40.534Z,65.50
2017-06-18T19:02:08.042Z,65.60
2017-06-18T19:04:35.529Z,65.70
2017-06-18T19:07:03.061Z,65.90
2017-06-18T19:09:30.556Z,66.10
2017-06-18T19:11:58.077Z,66.10
2017-06-18T19:14:25.557Z,66.20
2017-06-18T19:16:53.983Z,66.30
2017-06-18T19:19:21.928Z,66.60
2017-06-18T19:21:49.494Z,66.70
2017-06-18T19:24:17.040Z,66.80
2017-06-18T19:26:44.541Z,67.00
2017-06-18T19:29:12.489Z,67.20
2017-06-18T19:31:40.009Z,67.20
2017-06-18T19:34:07.528Z,67.40
2017-06-18T19:36:35.479Z,67.70
2017-06-18T19:39:03.034Z,67.70
2017-06-18T19:41:30.607Z,68.00
2017-06-18T19:43:58.127Z,68.30
2017-06-18T19:46:26.642Z,68.70
2017-06-18T19:48:54.554Z,69.20
2017-06-18T19:51:22.095Z,69.20
2017-06-18T19:53:49.590Z,69.60
2017-06-18T19:56:17.115Z,69.90
2017-06-18T19:58:45.589Z,70.00
2017-06-18T20:01:13.139Z,70.10
2017-06-18T20:03:40.668Z,70.40
2017-06-18T20:06:10.562Z,71.00
2017-06-18T20:08:38.118Z,71.00
2017-06-18T20:11:07.636Z,71.20
2017-06-18T20:13:36.089Z,71.40
2017-06-18T20:16:05.590Z,71.40
2017-06-18T20:18:34.047Z,71.70
2017-06-18T20:21:01.618Z,72.10
2017-06-18T20:23:29.120Z,72.20
2017-06-18T20:25:56.665Z,72.30
2017-06-18T20:28:24.212Z,72.30
2017-06-18T20:30:52.686Z,72.70
2017-06-18T20:33:20.212Z,72.80
2017-06-18T20:35:48.661Z,73.40
2017-06-18T20:38:16.613Z,73.60
2017-06-18T20:40:44.102Z,73.60
2017-06-18T20:43:12.946Z,74.00
2017-06-18T20:45:40.498Z,74.00
2017-06-18T20:48:08.003Z,74.10
2017-06-18T20:50:35.533Z,74.30
2017-06-18T20:53:03.106Z,74.60
2017-06-18T20:55:30.619Z,74.60
2017-06-18T20:57:58.153Z,74.70
2017-06-18T21:00:25.690Z,74.90
2017-06-18T21:02:53.569Z,75.20
2017-06-18T21:05:21.080Z,75.20
2017-06-18T21:07:48.622Z,75.40
2017-06-18T21:10:16.174Z,75.60
2017-06-18T21:12:43.720Z,75.60
2017-06-18T21:15:11.236Z,75.70
2017-06-18T21:17:38.792Z,75.80
2017-06-18T21:20:06.337Z,76.00
2017-06-18T21:22:33.908Z,75.90
2017-06-18T21:25:01.490Z,76.30
2017-06-18T21:27:29.049Z,76.70
2017-06-18T21:29:56.565Z,76.70
2017-06-18T21:32:24.095Z,76.70
2017-06-18T21:34:51.677Z,77.10
2017-06-18T21:37:19.204Z,77.50
2017-06-18T21:39:46.769Z,77.50
2017-06-18T21:42:14.327Z,77.50
2017-06-18T21:44:41.875Z,77.70
2017-06-18T21:47:09.421Z,77.90
2017-06-18T21:49:37.015Z,78.30
2017-06-18T21:52:04.603Z,78.50
2017-06-18T21:54:32.125Z,78.30
2017-06-18T21:56:59.684Z,78.40
2017-06-18T21:59:27.236Z,78.30
2017-06-18T22:01:54.801Z,78.40
2017-06-18T22:04:22.330Z,78.40
2017-06-18T22:06:49.837Z,78.90
2017-06-18T22:09:17.385Z,79.00
2017-06-18T22:11:44.938Z,79.30
2017-06-18T22:14:12.477Z,79.30
2017-06-18T22:16:40.021Z,79.70
2017-06-18T22:19:07.570Z,79.70
2017-06-18T22:21:35.097Z,80.10
2017-06-18T22:24:02.675Z,80.20
2017-06-18T22:26:30.170Z,80.00
2017-06-18T22:28:57.742Z,80.10
2017-06-18T22:31:25.282Z,80.40
2017-06-18T22:33:52.822Z,80.40
2017-06-18T22:36:20.358Z,80.80
2017-06-18T22:38:49.841Z,81.10
2017-06-18T22:41:17.389Z,81.10
2017-06-18T22:43:44.932Z,81.10
2017-06-18T22:46:12.534Z,81.00
2017-06-18T22:48:40.060Z,81.20
2017-06-18T22:51:07.600Z,80.70
2017-06-18T22:53:35.156Z,80.90
2017-06-18T22:56:02.714Z,81.20
2017-06-18T22:58:30.267Z,81.20
2017-06-18T23:00:57.799Z,81.50
2017-06-18T23:03:25.416Z,81.80
2017-06-18T23:05:52.934Z,82.00
2017-06-18T23:08:20.480Z,82.10
2017-06-18T23:10:48.030Z,82.00
2017-06-18T23:13:16.013Z,82.10
2017-06-18T23:15:43.556Z,82.10
2017-06-18T23:18:11.084Z,82.00
2017-06-18T23:20:38.569Z,82.10
2017-06-18T23:23:06.071Z,82.30
2017-06-18T23:25:33.554Z,82.40
2017-06-18T23:28:01.070Z,82.50
2017-06-18T23:30:28.554Z,82.50
2017-06-18T23:32:56.974Z,82.40
2017-06-18T23:35:25.371Z,82.60
2017-06-18T23:37:52.854Z,82.40
2017-06-18T23:40:20.375Z,82.60
2017-06-18T23:42:48.253Z,82.50
2017-06-18T23:45:15.745Z,82.50
2017-06-18T23:47:43.237Z,82.90
2017-06-18T23:50:10.727Z,82.40
2017-06-18T23:52:38.249Z,82.80
2017-06-18T23:55:06.689Z,82.10
2017-06-18T23:57:34.173Z,82.40
